createdAt,value
2023-03-27T00:02:11.726Z,9.30
2023-03-27T00:07:13.714Z,9.40
2023-03-27T00:12:15.526Z,9.40
2023-03-27T00:17:17.394Z,9.40
2023-03-27T00:22:19.647Z,9.50
2023-03-27T00:27:21.438Z,9.50
2023-03-27T00:32:23.240Z,9.50
2023-03-27T00:37:25.152Z,9.50
2023-03-27T00:42:27.156Z,9.50
2023-03-27T00:47:33.258Z,9.50
2023-03-27T00:52:37.057Z,9.30
2023-03-27T00:57:39.227Z,9.20
2023-03-27T01:02:44.113Z,9.30
2023-03-27T01:08:00.489Z,9.40
2023-03-27T01:13:21.854Z,9.40
2023-03-27T01:18:48.543Z,9.30
2023-03-27T01:24:00.772Z,9.30
2023-03-27T01:29:27.424Z,9.40
2023-03-27T01:35:01.305Z,9.40
2023-03-27T01:40:25.642Z,9.40
2023-03-27T01:46:06.508Z,9.40
2023-03-27T01:51:36.472Z,9.40
2023-03-27T01:56:51.654Z,9.40
2023-03-27T02:02:11.838Z,9.40
2023-03-27T02:07:19.446Z,9.40
2023-03-27T02:12:34.873Z,9.30
2023-03-27T02:17:43.220Z,9.30
2023-03-27T02:22:50.886Z,9.30
2023-03-27T02:28:06.680Z,9.30
2023-03-27T02:33:17.717Z,9.40
2023-03-27T02:38:41.905Z,9.50
2023-03-27T02:44:00.838Z,9.50
2023-03-27T02:49:29.901Z,9.50
2023-03-27T02:54:40.710Z,9.50
2023-03-27T02:59:49.342Z,9.60
2023-03-27T03:05:17.944Z,9.60
2023-03-27T03:10:21.235Z,9.60
2023-03-27T03:15:23.024Z,9.60
2023-03-27T03:20:24.881Z,9.70
2023-03-27T03:25:26.863Z,9.70
2023-03-27T03:30:30.408Z,9.70
2023-03-27T03:35:50.745Z,9.80
2023-03-27T03:41:03.015Z,9.90
2023-03-27T03:46:05.620Z,9.90
2023-03-27T03:51:07.533Z,9.90
2023-03-27T03:56:09.516Z,9.90
2023-03-27T04:01:11.517Z,9.90
2023-03-27T04:06:25.547Z,9.90
2023-03-27T04:11:33.693Z,9.90
2023-03-27T04:16:47.065Z,9.90
2023-03-27T04:21:58.084Z,9.90
2023-03-27T04:27:06.471Z,9.90
2023-03-27T04:32:43.865Z,9.90
2023-03-27T04:38:26.274Z,10.00
2023-03-27T04:43:30.870Z,9.90
2023-03-27T04:48:33.585Z,9.90
2023-03-27T04:53:45.428Z,9.80
2023-03-27T04:58:48.128Z,9.90
2023-03-27T05:03:52.654Z,10.00
2023-03-27T05:09:16.735Z,10.00
2023-03-27T05:14:23.399Z,10.00
2023-03-27T05:19:26.875Z,9.90
2023-03-27T05:24:36.286Z,9.80
2023-03-27T05:29:47.233Z,9.80
2023-03-27T05:34:54.675Z,9.80
2023-03-27T05:39:58.092Z,9.80
2023-03-27T05:45:00.233Z,9.70
2023-03-27T05:50:03.164Z,9.70
2023-03-27T05:55:06.620Z,9.90
2023-03-27T06:00:14.035Z,9.90
2023-03-27T06:05:18.269Z,9.90
2023-03-27T06:10:24.726Z,9.90
2023-03-27T06:15:59.837Z,9.90
2023-03-27T06:21:17.308Z,9.90
2023-03-27T06:26:19.886Z,10.00
2023-03-27T06:31:22.157Z,10.00
2023-03-27T06:36:32.469Z,9.90
2023-03-27T06:41:35.772Z,9.60
2023-03-27T06:46:56.320Z,9.30
2023-03-27T06:52:27.378Z,9.20
2023-03-27T06:57:41.646Z,9.00
2023-03-27T07:02:44.612Z,9.00
2023-03-27T07:13:23.297Z,8.30
2023-03-27T07:18:25.312Z,8.10
2023-03-27T07:23:29.166Z,8.00
2023-03-27T07:28:44.594Z,7.80
2023-03-27T07:33:49.579Z,7.70
2023-03-27T07:38:53.818Z,7.60
2023-03-27T07:44:00.702Z,7.60
2023-03-27T07:49:11.131Z,7.70
2023-03-27T07:54:17.074Z,7.70
2023-03-27T07:59:24.510Z,7.80
2023-03-27T08:04:28.248Z,7.80
2023-03-27T08:09:41.405Z,7.80
2023-03-27T08:14:45.695Z,7.80
2023-03-27T08:19:54.520Z,7.80
2023-03-27T08:24:57.149Z,7.80
2023-03-27T08:30:01.412Z,7.80
2023-03-27T08:35:04.128Z,7.80
2023-03-27T08:40:13.281Z,7.80
2023-03-27T08:45:26.382Z,7.80
2023-03-27T08:50:46.570Z,7.80
2023-03-27T08:55:51.399Z,7.90
2023-03-27T09:01:33.620Z,7.90
2023-03-27T09:06:50.738Z,8.40
2023-03-27T09:12:03.039Z,9.00
2023-03-27T09:17:18.925Z,9.30
2023-03-27T09:22:31.280Z,9.30
2023-03-27T09:27:53.111Z,9.20
2023-03-27T09:33:18.113Z,9.00
2023-03-27T09:38:28.362Z,8.90
2023-03-27T09:44:03.639Z,9.00
2023-03-27T09:49:12.653Z,9.10
2023-03-27T09:54:22.359Z,9.10
2023-03-27T09:59:33.059Z,9.10
2023-03-27T10:05:00.007Z,9.20
2023-03-27T10:10:17.563Z,9.30
2023-03-27T10:15:45.719Z,9.20
2023-03-27T10:20:59.947Z,9.10
2023-03-27T10:26:11.116Z,9.10
2023-03-27T10:31:30.629Z,9.20
2023-03-27T10:36:55.201Z,9.20
2023-03-27T10:42:06.347Z,9.30
2023-03-27T10:47:22.534Z,9.20
2023-03-27T10:52:51.330Z,9.30
2023-03-27T10:58:22.020Z,9.50
2023-03-27T11:03:48.741Z,9.50
2023-03-27T11:09:16.142Z,9.70
2023-03-27T11:14:53.228Z,10.00
2023-03-27T11:20:07.395Z,10.00
2023-03-27T11:25:52.847Z,9.90
2023-03-27T11:31:18.698Z,9.90
2023-03-27T11:36:40.167Z,9.70
2023-03-27T11:42:01.445Z,9.70
2023-03-27T11:47:09.569Z,9.60
2023-03-27T11:52:37.825Z,9.60
2023-03-27T11:57:50.535Z,9.80
2023-03-27T12:03:19.841Z,10.10
2023-03-27T12:08:51.511Z,10.50
2023-03-27T12:14:18.560Z,10.70
2023-03-27T12:20:04.778Z,10.60
2023-03-27T12:25:47.187Z,10.60
2023-03-27T12:31:24.731Z,10.60
2023-03-27T12:36:30.974Z,10.80
2023-03-27T12:41:43.097Z,11.00
2023-03-27T12:47:22.918Z,11.20
2023-03-27T12:52:30.303Z,11.30
2023-03-27T12:57:53.526Z,11.10
2023-03-27T13:03:53.493Z,11.10
2023-03-27T13:09:08.437Z,11.20
2023-03-27T13:14:20.100Z,11.20
2023-03-27T13:19:49.333Z,11.20
2023-03-27T13:25:15.964Z,11.10
2023-03-27T13:30:42.198Z,11.10
2023-03-27T13:36:02.720Z,10.80
2023-03-27T13:41:44.341Z,10.80
2023-03-27T13:47:13.592Z,11.10
2023-03-27T13:52:54.523Z,11.30
2023-03-27T13:58:34.556Z,11.40
2023-03-27T14:03:57.875Z,11.80
2023-03-27T14:09:36.555Z,12.00
2023-03-27T14:15:17.026Z,12.10
2023-03-27T14:20:31.028Z,12.10
2023-03-27T14:25:43.781Z,11.90
2023-03-27T14:31:07.203Z,11.70
2023-03-27T14:36:47.540Z,11.40
2023-03-27T14:42:02.242Z,11.40
2023-03-27T14:47:12.916Z,11.50
2023-03-27T14:52:25.004Z,11.60
2023-03-27T14:57:51.280Z,11.60
2023-03-27T15:02:54.950Z,11.40
2023-03-27T15:07:57.053Z,11.30
2023-03-27T15:13:17.643Z,11.30
2023-03-27T15:18:33.422Z,11.40
2023-03-27T15:23:50.055Z,11.80
2023-03-27T15:29:04.004Z,12.00
2023-03-27T15:34:34.180Z,12.20
2023-03-27T15:39:54.851Z,12.30
2023-03-27T15:45:04.773Z,12.50
2023-03-27T15:50:23.940Z,12.70
2023-03-27T15:55:43.949Z,12.80
2023-03-27T16:00:48.579Z,12.60
2023-03-27T16:05:53.786Z,12.50
2023-03-27T16:10:56.047Z,12.60
2023-03-27T16:16:23.023Z,12.50
2023-03-27T16:21:27.643Z,12.30
2023-03-27T16:26:31.741Z,12.10
2023-03-27T16:31:33.624Z,11.90
2023-03-27T16:36:36.256Z,11.80
2023-03-27T16:41:38.107Z,11.70
2023-03-27T16:46:40.263Z,11.50
2023-03-27T16:51:43.510Z,11.30
2023-03-27T16:56:45.419Z,11.20
2023-03-27T17:01:48.166Z,11.10
2023-03-27T17:06:50.728Z,11.10
2023-03-27T17:11:52.601Z,11.10
2023-03-27T17:16:54.567Z,11.10
2023-03-27T17:21:56.384Z,11.10
2023-03-27T17:26:58.225Z,11.10
2023-03-27T17:32:02.066Z,11.10
2023-03-27T17:37:03.923Z,10.90
2023-03-27T17:42:06.721Z,10.80
2023-03-27T17:47:08.774Z,10.70
2023-03-27T17:52:12.276Z,10.70
2023-03-27T17:57:14.912Z,10.60
2023-03-27T18:02:19.287Z,10.50
2023-03-27T18:07:22.811Z,10.50
2023-03-27T18:12:27.205Z,10.40
2023-03-27T18:17:29.209Z,10.10
2023-03-27T18:22:31.041Z,10.00
2023-03-27T18:27:33.104Z,9.80
2023-03-27T18:32:35.084Z,9.70
2023-03-27T18:37:36.961Z,9.60
2023-03-27T18:42:40.664Z,9.50
2023-03-27T18:47:44.125Z,9.50
2023-03-27T18:52:46.075Z,9.50
2023-03-27T18:57:47.925Z,9.50
2023-03-27T19:02:49.817Z,9.40
2023-03-27T19:07:53.544Z,9.30
2023-03-27T19:12:55.489Z,9.30
2023-03-27T19:18:16.246Z,9.20
2023-03-27T19:23:36.773Z,9.20
2023-03-27T19:28:40.357Z,8.90
2023-03-27T19:33:45.719Z,8.60
2023-03-27T19:38:51.242Z,8.40
2023-03-27T19:44:03.560Z,8.20
2023-03-27T19:49:08.476Z,8.30
2023-03-27T19:54:42.056Z,8.10
2023-03-27T19:59:43.988Z,8.10
2023-03-27T20:04:45.817Z,8.10
2023-03-27T20:09:47.674Z,8.20
2023-03-27T20:15:02.336Z,8.20
2023-03-27T20:20:12.186Z,8.20
2023-03-27T20:25:14.790Z,8.00
2023-03-27T20:30:17.361Z,8.00
2023-03-27T20:35:24.246Z,8.10
2023-03-27T20:40:26.972Z,8.10
2023-03-27T20:45:30.900Z,8.10
2023-03-27T20:50:35.811Z,8.10
2023-03-27T21:00:43.720Z,8.10
2023-03-27T21:05:45.718Z,8.00
2023-03-27T21:10:54.002Z,7.90
2023-03-27T21:15:56.141Z,8.00
2023-03-27T21:20:58.068Z,8.00
2023-03-27T21:26:00.451Z,8.10
2023-03-27T21:31:07.035Z,8.10
2023-03-27T21:36:09.982Z,8.00
2023-03-27T21:41:16.485Z,8.00
2023-03-27T21:46:18.446Z,8.10
2023-03-27T21:51:20.467Z,8.00
2023-03-27T21:56:22.229Z,8.00
2023-03-27T22:01:24.668Z,8.00
2023-03-27T22:06:28.745Z,7.90
2023-03-27T22:11:30.764Z,7.90
2023-03-27T22:16:32.613Z,7.90
2023-03-27T22:21:34.622Z,7.90
2023-03-27T22:26:39.014Z,7.80
2023-03-27T22:31:41.045Z,7.80
2023-03-27T22:36:43.042Z,7.80
2023-03-27T22:41:44.998Z,7.80
2023-03-27T22:46:47.068Z,7.70
2023-03-27T22:51:49.014Z,7.70
2023-03-27T22:56:50.897Z,7.70
2023-03-27T23:01:52.926Z,7.70
2023-03-27T23:06:55.037Z,7.70
2023-03-27T23:11:56.871Z,7.70
2023-03-27T23:16:58.982Z,7.70
2023-03-27T23:22:00.881Z,7.60
2023-03-27T23:27:04.934Z,7.50
2023-03-27T23:32:07.025Z,7.60
2023-03-27T23:37:08.970Z,7.60
2023-03-27T23:42:10.836Z,7.60
2023-03-27T23:47:12.742Z,7.70
2023-03-27T23:52:14.775Z,7.70
2023-03-27T23:57:16.696Z,7.80
